Time;durP1;ratioP1;P1;durP2;ratioP2;P2;SDS_P1;SDS_P2;PMS_P1;PMS_P2;Temp;Humidity;BMP_temperature;BMP_pressure;BME280_temperature;BME280_humidity;BME280_pressure;Samples;Min_cycle;Max_cycle;Signal;HPM_P1;HPM_P2
2022/09/04 00:00:07;;;;;;;289.75;16.27;;;14.20;99.90;;;;;;5037881;28;20029;-61
2022/09/04 00:03:03;;;;;;;57.63;9.35;;;14.10;99.90;;;;;;5038272;28;20029;-59
2022/09/04 00:06:00;;;;;;;35.55;7.80;;;14.00;99.90;;;;;;5040211;28;20033;-61
2022/09/04 00:08:47;;;;;;;120.60;10.32;;;14.00;99.90;;;;;;5035568;28;20366;-59
2022/09/04 00:11:37;;;;;;;8.80;8.07;;;13.90;99.90;;;;;;5040552;28;20557;-61
2022/09/04 00:14:12;;;;;;;41.50;8.57;;;13.90;99.90;;;;;;5036329;28;20073;-59
2022/09/04 00:17:14;;;;;;;186.95;12.25;;;13.90;99.90;;;;;;5033530;28;20026;-60
2022/09/04 00:20:04;;;;;;;108.25;9.35;;;13.80;99.90;;;;;;5028554;28;20447;-60
2022/09/04 00:22:45;;;;;;;6.38;5.75;;;13.80;99.90;;;;;;5038767;28;20377;-60
2022/09/04 00:25:18;;;;;;;6.78;6.13;;;13.80;99.90;;;;;;5038013;28;20043;-61
2022/09/04 00:27:49;;;;;;;9.70;6.20;;;13.70;99.90;;;;;;5039995;28;20067;-60
2022/09/04 00:30:20;;;;;;;7.55;7.05;;;13.70;99.90;;;;;;5041121;28;20020;-59
2022/09/04 00:33:09;;;;;;;8.20;7.68;;;13.70;99.90;;;;;;5042203;28;20030;-59
2022/09/04 00:35:45;;;;;;;9.27;8.57;;;13.60;99.90;;;;;;5037539;28;20548;-60
2022/09/04 00:38:29;;;;;;;10.13;9.43;;;13.60;99.90;;;;;;5039563;28;20033;-59
2022/09/04 00:41:17;;;;;;;10.60;9.80;;;13.60;99.90;;;;;;5038602;28;20033;-61
2022/09/04 00:44:01;;;;;;;13.25;12.10;;;13.60;99.90;;;;;;5035778;28;20041;-61
2022/09/04 00:46:42;;;;;;;13.15;12.05;;;13.60;99.90;;;;;;5039050;28;20128;-61
2022/09/04 00:49:35;;;;;;;14.73;13.52;;;13.50;99.90;;;;;;5037437;28;20025;-60
2022/09/04 00:52:44;;;;;;;13.13;11.57;;;13.60;99.90;;;;;;5040698;28;20415;-60
2022/09/04 00:55:37;;;;;;;250.77;16.13;;;13.60;99.90;;;;;;5039058;28;20036;-60
2022/09/04 00:58:20;;;;;;;11.43;10.38;;;13.60;99.90;;;;;;5036741;28;20072;-61
2022/09/04 01:00:46;;;;;;;308.30;17.08;;;13.60;99.90;;;;;;5037320;28;20026;-61
2022/09/04 01:03:49;;;;;;;12.30;11.10;;;13.50;99.90;;;;;;5034542;28;20028;-62
2022/09/04 01:06:38;;;;;;;27.08;13.63;;;13.50;99.90;;;;;;5034236;28;20066;-59
2022/09/04 01:09:32;;;;;;;29.02;13.98;;;13.60;99.90;;;;;;5035049;28;20039;-61
2022/09/04 01:12:28;;;;;;;82.57;15.68;;;13.50;99.90;;;;;;5038565;28;20721;-61
2022/09/04 01:15:13;;;;;;;16.60;13.43;;;13.60;99.90;;;;;;5037262;28;20036;-61
2022/09/04 01:18:03;;;;;;;44.75;16.25;;;13.60;99.90;;;;;;5049155;28;20022;-61
2022/09/04 01:21:10;;;;;;;43.05;14.43;;;13.60;99.90;;;;;;5039411;28;20154;-59
2022/09/04 01:24:10;;;;;;;74.43;16.02;;;13.60;99.90;;;;;;5037203;28;20060;-62
2022/09/04 01:26:57;;;;;;;18.35;12.57;;;13.60;99.90;;;;;;5034818;28;20112;-59
2022/09/04 01:29:56;;;;;;;14.38;12.57;;;13.60;99.90;;;;;;5035741;28;20037;-59
2022/09/04 01:32:40;;;;;;;17.65;13.27;;;13.70;99.90;;;;;;5036530;28;20030;-60
2022/09/04 01:35:18;;;;;;;46.67;16.70;;;13.70;99.90;;;;;;5038257;28;20017;-59
2022/09/04 01:37:57;;;;;;;29.83;12.40;;;13.60;99.90;;;;;;5032681;28;20033;-62
2022/09/04 01:40:43;;;;;;;15.23;10.88;;;13.60;99.90;;;;;;5040780;28;20037;-60
2022/09/04 01:43:16;;;;;;;34.03;10.88;;;13.60;99.90;;;;;;5038174;28;20112;-62
2022/09/04 01:45:42;;;;;;;178.85;11.95;;;13.50;99.90;;;;;;5039380;28;20025;-61
2022/09/04 01:48:13;;;;;;;140.73;10.85;;;13.40;99.90;;;;;;5034923;28;20075;-59
2022/09/04 01:50:44;;;;;;;140.85;11.07;;;13.30;99.90;;;;;;5033812;28;20044;-61
2022/09/04 01:53:26;;;;;;;108.63;9.52;;;13.30;99.90;;;;;;5036961;28;20568;-59
2022/09/04 01:56:08;;;;;;;68.60;8.88;;;13.20;99.90;;;;;;5033557;28;20029;-59
2022/09/04 01:58:46;;;;;;;62.88;9.93;;;13.10;99.90;;;;;;5035411;28;20021;-60
2022/09/04 02:01:18;;;;;;;124.03;12.88;;;13.10;99.90;;;;;;5033452;28;20029;-59
2022/09/04 02:03:46;;;;;;;54.08;10.25;;;13.10;99.90;;;;;;5034033;28;20112;-59
2022/09/04 02:06:32;;;;;;;53.88;10.43;;;13.10;99.90;;;;;;5038133;28;20024;-59
2022/09/04 02:09:19;;;;;;;88.72;12.02;;;13.10;99.90;;;;;;5039127;28;20083;-59
2022/09/04 02:11:52;;;;;;;72.60;11.52;;;13.00;99.90;;;;;;5037135;28;20040;-59
2022/09/04 02:14:26;;;;;;;73.30;11.20;;;13.00;99.90;;;;;;5036583;28;20026;-59
2022/09/04 02:17:11;;;;;;;90.22;11.60;;;13.00;99.90;;;;;;5037374;28;20029;-59
2022/09/04 02:19:46;;;;;;;70.32;11.45;;;13.00;99.90;;;;;;5039848;28;20041;-59
2022/09/04 02:22:33;;;;;;;60.65;10.43;;;13.10;99.90;;;;;;5034916;28;20029;-59
2022/09/04 02:25:25;;;;;;;74.60;10.80;;;13.10;99.90;;;;;;5043763;28;20506;-59
2022/09/04 02:28:12;;;;;;;69.65;10.57;;;13.10;99.90;;;;;;5037983;28;20087;-59
2022/09/04 02:31:03;;;;;;;70.68;10.65;;;13.10;99.90;;;;;;5035591;28;20022;-60
2022/09/04 02:33:36;;;;;;;99.40;11.00;;;13.10;99.90;;;;;;5041459;28;20768;-59
2022/09/04 02:36:14;;;;;;;98.50;11.77;;;13.00;99.90;;;;;;5040446;28;20029;-59
2022/09/04 02:38:57;;;;;;;109.57;12.57;;;13.00;99.90;;;;;;5039738;28;20029;-59
2022/09/04 02:41:59;;;;;;;42.97;9.40;;;13.00;99.90;;;;;;5038703;28;20095;-59
2022/09/04 02:45:18;;;;;;;55.47;10.00;;;12.90;99.90;;;;;;5045842;28;20090;-58
2022/09/04 02:47:53;;;;;;;59.55;9.13;;;12.90;99.90;;;;;;5021563;28;20365;-59
2022/09/04 02:50:57;;;;;;;32.28;9.23;;;12.90;99.90;;;;;;5037657;28;20109;-59
2022/09/04 02:53:40;;;;;;;35.30;8.98;;;12.90;99.90;;;;;;5043536;28;20037;-60
2022/09/04 02:56:24;;;;;;;25.25;11.25;;;12.90;99.90;;;;;;5044430;28;20116;-59
2022/09/04 02:59:08;;;;;;;39.97;10.55;;;12.90;99.90;;;;;;5044199;28;20037;-59
2022/09/04 03:01:52;;;;;;;29.27;9.20;;;12.90;99.90;;;;;;5039098;28;20120;-61
2022/09/04 03:04:30;;;;;;;31.33;8.88;;;12.90;99.90;;;;;;5044152;28;20116;-58
2022/09/04 03:07:05;;;;;;;41.35;9.30;;;12.90;99.90;;;;;;5040581;28;20039;-59
2022/09/04 03:09:43;;;;;;;37.63;9.75;;;12.90;99.90;;;;;;5045026;28;20392;-60
2022/09/04 03:12:31;;;;;;;47.33;8.93;;;12.90;99.90;;;;;;5033431;28;20046;-59
2022/09/04 03:15:22;;;;;;;40.75;9.48;;;12.90;99.90;;;;;;5043076;28;20632;-60
2022/09/04 03:18:13;;;;;;;41.42;11.02;;;12.90;99.90;;;;;;5035784;28;20036;-58
2022/09/04 03:20:48;;;;;;;43.75;10.73;;;12.90;99.90;;;;;;5037963;28;20048;-59
2022/09/04 03:23:41;;;;;;;59.72;10.65;;;12.90;99.90;;;;;;5035183;28;20750;-59
2022/09/04 03:26:14;;;;;;;61.47;10.75;;;13.00;99.90;;;;;;5037991;28;20045;-59
2022/09/04 03:29:10;;;;;;;84.75;11.80;;;13.00;99.90;;;;;;5039429;28;20083;-59
2022/09/04 03:32:09;;;;;;;108.72;11.55;;;13.00;99.90;;;;;;5040023;28;20034;-60
2022/09/04 03:34:43;;;;;;;123.25;12.57;;;13.00;99.90;;;;;;5037369;28;20041;-59
2022/09/04 03:37:35;;;;;;;111.57;13.13;;;13.00;99.90;;;;;;5038433;28;20056;-61
2022/09/04 03:40:03;;;;;;;211.60;15.23;;;13.00;99.90;;;;;;5038304;28;20045;-61
2022/09/04 03:42:50;;;;;;;222.88;16.35;;;13.00;99.90;;;;;;5038002;28;20033;-60
2022/09/04 03:45:47;;;;;;;164.45;14.73;;;13.10;99.90;;;;;;5039933;28;20508;-59
2022/09/04 03:48:27;;;;;;;224.10;15.23;;;13.10;99.90;;;;;;5037560;28;20033;-59
2022/09/04 03:50:56;;;;;;;198.18;14.98;;;13.10;99.90;;;;;;5035534;28;20028;-59
2022/09/04 03:53:35;;;;;;;211.05;17.15;;;13.10;99.90;;;;;;5037311;28;20053;-59
2022/09/04 03:56:15;;;;;;;238.27;16.58;;;13.10;99.90;;;;;;5035428;28;20507;-61
2022/09/04 03:59:07;;;;;;;235.73;18.88;;;13.00;99.90;;;;;;5041718;28;20087;-60
2022/09/04 04:01:54;;;;;;;272.95;17.30;;;13.10;99.90;;;;;;5043574;28;20040;-59
2022/09/04 04:04:59;;;;;;;195.52;15.80;;;13.10;99.90;;;;;;5038143;28;20041;-59
2022/09/04 04:07:46;;;;;;;199.88;15.40;;;13.10;99.90;;;;;;5037064;28;20392;-60
2022/09/04 04:10:21;;;;;;;187.55;15.93;;;13.10;99.90;;;;;;5035768;28;20033;-59
2022/09/04 04:13:07;;;;;;;238.02;18.00;;;13.10;99.90;;;;;;5042168;28;20132;-60
2022/09/04 04:16:22;;;;;;;257.38;19.05;;;13.10;99.90;;;;;;5042212;28;20484;-60
2022/09/04 04:18:53;;;;;;;341.38;19.75;;;13.00;99.90;;;;;;5033472;28;20041;-59
2022/09/04 04:21:54;;;;;;;317.17;20.80;;;13.00;99.90;;;;;;5041228;28;20025;-59
2022/09/04 04:24:47;;;;;;;306.27;21.88;;;13.00;99.90;;;;;;5035260;28;20045;-59
2022/09/04 04:27:34;;;;;;;308.42;19.90;;;13.00;99.90;;;;;;5027280;28;20026;-59
2022/09/04 04:30:05;;;;;;;291.30;20.58;;;13.00;99.90;;;;;;5039608;28;20037;-59
2022/09/04 04:32:49;;;;;;;309.48;20.20;;;13.00;99.90;;;;;;5041685;28;20224;-60
2022/09/04 04:35:39;;;;;;;251.07;20.52;;;12.90;99.90;;;;;;5035205;28;20370;-59
2022/09/04 04:38:04;;;;;;;184.27;17.95;;;13.00;99.90;;;;;;5036193;28;20029;-60
2022/09/04 04:40:40;;;;;;;205.48;20.17;;;12.90;99.90;;;;;;5036567;28;20033;-61
2022/09/04 04:43:20;;;;;;;222.20;21.98;;;12.90;99.90;;;;;;5038579;28;20515;-59
2022/09/04 04:45:55;;;;;;;167.20;18.15;;;12.90;99.90;;;;;;5038814;28;20024;-61
2022/09/04 04:48:39;;;;;;;162.60;20.38;;;12.90;99.90;;;;;;5034096;28;20022;-59
2022/09/04 04:52:00;;;;;;;213.07;23.00;;;12.90;99.90;;;;;;5036462;28;20127;-61
2022/09/04 04:54:45;;;;;;;185.52;21.85;;;12.90;99.90;;;;;;5040097;28;20033;-57
2022/09/04 04:57:41;;;;;;;259.77;23.23;;;12.90;99.90;;;;;;5036417;28;20029;-58
2022/09/04 05:00:18;;;;;;;223.75;23.17;;;12.90;99.90;;;;;;5031202;28;20489;-58
2022/09/04 05:02:55;;;;;;;236.68;22.00;;;12.90;99.90;;;;;;5034876;28;20036;-57
2022/09/04 05:05:40;;;;;;;196.10;22.45;;;13.00;99.90;;;;;;5037490;28;20029;-58
2022/09/04 05:08:16;;;;;;;282.23;27.48;;;13.00;99.90;;;;;;5041651;28;20029;-58
2022/09/04 05:10:49;;;;;;;216.32;21.83;;;13.00;99.90;;;;;;5029415;28;20029;-58
2022/09/04 05:14:00;;;;;;;201.43;23.02;;;13.00;99.90;;;;;;5037632;28;20090;-58
2022/09/04 05:16:47;;;;;;;153.63;21.85;;;13.10;99.90;;;;;;5031547;28;20037;-58
2022/09/04 05:19:40;;;;;;;194.63;21.65;;;13.10;99.90;;;;;;5037744;28;20091;-57
2022/09/04 05:22:05;;;;;;;199.05;23.90;;;13.10;99.90;;;;;;5041910;28;20061;-59
2022/09/04 05:24:35;;;;;;;194.73;23.17;;;13.20;99.90;;;;;;5035785;28;20858;-59
2022/09/04 05:27:16;;;;;;;188.75;25.70;;;13.20;99.90;;;;;;5034906;28;20093;-57
2022/09/04 05:30:13;;;;;;;161.45;25.77;;;13.30;99.90;;;;;;5039336;28;20021;-57
2022/09/04 05:32:44;;;;;;;88.60;19.85;;;13.30;99.90;;;;;;5034795;28;20026;-57
2022/09/04 05:35:17;;;;;;;97.32;22.30;;;13.40;99.90;;;;;;5038041;28;20036;-58
2022/09/04 05:37:56;;;;;;;83.65;22.25;;;13.50;99.90;;;;;;5039845;28;20397;-59
2022/09/04 05:40:50;;;;;;;71.93;21.48;;;13.50;99.90;;;;;;5032304;28;20369;-59
2022/09/04 05:43:34;;;;;;;111.68;22.25;;;13.50;99.90;;;;;;5036185;28;20029;-59
2022/09/04 05:46:22;;;;;;;101.35;21.10;;;13.50;99.90;;;;;;5040550;28;20029;-58
2022/09/04 05:48:59;;;;;;;160.15;22.70;;;13.50;99.90;;;;;;5035603;28;20017;-59
2022/09/04 05:51:46;;;;;;;97.05;20.00;;;13.60;99.90;;;;;;5037902;28;20017;-57
2022/09/04 05:54:27;;;;;;;137.40;20.55;;;13.60;99.90;;;;;;5035386;28;20496;-59
2022/09/04 05:56:53;;;;;;;162.82;21.45;;;13.60;99.90;;;;;;5038243;28;20025;-58
2022/09/04 05:59:50;;;;;;;168.23;23.00;;;13.60;99.90;;;;;;5037735;28;20082;-58
2022/09/04 06:02:15;;;;;;;186.05;22.80;;;13.70;99.90;;;;;;5035576;28;20033;-59
2022/09/04 06:05:04;;;;;;;134.60;23.08;;;13.60;99.90;;;;;;5037523;28;20697;-59
2022/09/04 06:07:54;;;;;;;149.63;22.45;;;13.70;99.90;;;;;;5035148;28;20030;-58
2022/09/04 06:11:01;;;;;;;193.37;23.60;;;13.80;99.90;;;;;;5037232;28;20393;-59
2022/09/04 06:13:36;;;;;;;297.70;30.15;;;13.80;99.90;;;;;;5030398;28;20139;-59
2022/09/04 06:16:04;;;;;;;267.42;26.15;;;13.80;99.90;;;;;;5037133;28;20032;-59
2022/09/04 06:19:06;;;;;;;331.63;31.90;;;13.70;99.90;;;;;;5028667;28;20025;-59
2022/09/04 06:21:50;;;;;;;369.45;36.97;;;13.80;99.90;;;;;;5038472;28;20035;-59
2022/09/04 06:24:49;;;;;;;469.02;40.60;;;13.80;99.90;;;;;;5036733;28;20017;-59
2022/09/04 06:27:44;;;;;;;147.40;22.90;;;14.00;99.90;;;;;;5035455;28;20064;-58
2022/09/04 06:30:12;;;;;;;197.43;27.65;;;13.90;99.90;;;;;;5038137;28;20033;-58
2022/09/04 06:33:15;;;;;;;98.05;23.50;;;14.00;99.90;;;;;;5039669;28;20029;-59
2022/09/04 06:36:01;;;;;;;79.18;23.48;;;14.10;99.90;;;;;;5039189;28;20025;-58
2022/09/04 06:38:40;;;;;;;81.30;20.52;;;14.10;99.90;;;;;;5032619;28;20029;-57
2022/09/04 06:41:17;;;;;;;72.75;19.92;;;14.20;99.90;;;;;;5037398;28;20083;-58
2022/09/04 06:43:49;;;;;;;69.97;20.30;;;14.20;99.90;;;;;;5035000;28;20084;-59
2022/09/04 06:46:32;;;;;;;77.65;19.77;;;14.30;99.90;;;;;;5034669;28;20436;-57
2022/09/04 06:49:12;;;;;;;67.40;20.33;;;14.30;99.90;;;;;;5037119;28;20026;-58
2022/09/04 06:52:11;;;;;;;68.97;20.88;;;14.40;99.90;;;;;;5033685;28;20048;-58
2022/09/04 06:54:45;;;;;;;95.40;19.17;;;14.50;99.90;;;;;;5038906;28;20037;-58
2022/09/04 06:57:47;;;;;;;177.05;21.95;;;14.50;99.90;;;;;;5035977;28;20191;-58
2022/09/04 07:00:15;;;;;;;152.25;20.45;;;14.50;99.90;;;;;;5033337;28;20040;-59
2022/09/04 07:02:59;;;;;;;102.97;19.50;;;14.50;99.90;;;;;;5036638;28;20060;-58
2022/09/04 07:05:43;;;;;;;77.32;19.92;;;14.50;99.90;;;;;;5037567;28;20118;-58
2022/09/04 07:08:18;;;;;;;34.13;18.10;;;14.60;99.90;;;;;;5042646;28;20028;-59
2022/09/04 07:10:55;;;;;;;136.27;20.83;;;14.70;99.90;;;;;;5039602;28;20484;-59
2022/09/04 07:13:24;;;;;;;188.90;21.88;;;14.80;99.90;;;;;;5040330;28;20029;-59
2022/09/04 07:16:30;;;;;;;100.75;19.77;;;14.80;99.90;;;;;;5039751;28;20037;-59
2022/09/04 07:19:09;;;;;;;90.00;19.05;;;14.80;99.90;;;;;;5038544;28;20041;-58
2022/09/04 07:22:17;;;;;;;44.75;18.42;;;15.00;99.90;;;;;;5040295;28;20076;-58
2022/09/04 07:25:03;;;;;;;59.03;17.38;;;15.10;99.90;;;;;;5024695;28;20026;-59
2022/09/04 07:27:58;;;;;;;18.13;16.05;;;15.20;99.90;;;;;;5038178;28;20488;-61
2022/09/04 07:30:28;;;;;;;62.58;18.27;;;15.30;99.90;;;;;;5042283;28;20071;-59
2022/09/04 07:33:11;;;;;;;83.30;19.40;;;15.30;99.90;;;;;;5041372;28;20120;-59
2022/09/04 07:35:37;;;;;;;31.40;19.05;;;15.30;99.90;;;;;;5034805;28;20558;-59
2022/09/04 07:38:20;;;;;;;124.60;19.40;;;15.50;99.90;;;;;;5037728;28;20029;-58
2022/09/04 07:41:09;;;;;;;51.13;17.45;;;15.60;99.90;;;;;;5035188;28;20057;-58
2022/09/04 07:43:49;;;;;;;21.10;17.05;;;15.70;99.90;;;;;;5035061;28;20064;-59
2022/09/04 07:46:32;;;;;;;18.77;15.73;;;15.90;99.90;;;;;;5039461;28;20480;-59
2022/09/04 07:49:08;;;;;;;33.45;16.98;;;16.00;99.90;;;;;;5043835;28;20029;-58
2022/09/04 07:51:44;;;;;;;35.55;15.60;;;16.10;99.90;;;;;;5040269;28;20021;-58
2022/09/04 07:54:42;;;;;;;19.50;15.55;;;16.20;99.90;;;;;;5038080;28;20044;-59
2022/09/04 07:57:42;;;;;;;23.52;17.05;;;16.30;99.90;;;;;;5043008;28;20029;-58
2022/09/04 08:00:19;;;;;;;16.63;15.23;;;16.40;99.90;;;;;;5037623;28;20087;-59
2022/09/04 08:03:19;;;;;;;25.75;16.55;;;16.50;99.90;;;;;;5039848;28;20053;-58
2022/09/04 08:06:05;;;;;;;15.57;14.27;;;16.30;99.90;;;;;;5037772;28;20039;-59
2022/09/04 08:08:52;;;;;;;16.20;14.70;;;16.30;99.90;;;;;;5039652;28;20029;-59
2022/09/04 08:11:48;;;;;;;16.38;14.98;;;16.50;99.90;;;;;;5044540;28;20022;-59
2022/09/04 08:15:01;;;;;;;17.05;15.45;;;16.40;99.90;;;;;;5037435;28;20101;-58
2022/09/04 08:17:41;;;;;;;17.77;16.23;;;16.40;99.90;;;;;;5029095;28;20068;-58
2022/09/04 08:20:20;;;;;;;16.77;15.20;;;16.50;99.90;;;;;;5025231;28;20041;-59
2022/09/04 08:23:04;;;;;;;17.65;16.17;;;16.60;99.90;;;;;;5035777;28;20029;-58
2022/09/04 08:26:03;;;;;;;18.73;17.13;;;16.60;99.90;;;;;;5037740;28;20116;-58
2022/09/04 08:28:55;;;;;;;17.08;15.65;;;16.50;99.90;;;;;;5036794;28;20582;-58
2022/09/04 08:31:32;;;;;;;18.27;16.52;;;16.60;99.90;;;;;;5033917;28;20053;-59
2022/09/04 08:34:26;;;;;;;15.48;14.27;;;16.80;99.90;;;;;;5038515;28;20105;-58
2022/09/04 08:37:16;;;;;;;15.68;14.38;;;17.00;99.90;;;;;;5035873;28;20804;-58
2022/09/04 08:40:12;;;;;;;16.05;14.77;;;17.00;99.90;;;;;;5040272;28;20047;-59
2022/09/04 08:43:06;;;;;;;14.05;13.02;;;17.10;99.90;;;;;;5036705;28;20032;-58
2022/09/04 08:45:50;;;;;;;16.42;15.13;;;17.40;99.90;;;;;;5037838;28;20029;-58
2022/09/04 08:48:26;;;;;;;14.93;13.73;;;17.30;99.90;;;;;;5034035;28;20025;-58
2022/09/04 08:50:55;;;;;;;15.90;14.65;;;17.50;99.90;;;;;;5036324;28;20029;-59
2022/09/04 08:54:01;;;;;;;15.60;14.40;;;17.30;99.90;;;;;;5036902;28;20507;-58
2022/09/04 08:56:57;;;;;;;13.77;12.68;;;17.30;99.90;;;;;;5035519;28;20060;-58
2022/09/04 08:59:41;;;;;;;15.57;14.18;;;17.70;99.90;;;;;;5038820;28;20037;-58
2022/09/04 09:02:19;;;;;;;14.27;13.00;;;17.80;99.90;;;;;;5036088;28;20021;-58
2022/09/04 09:05:00;;;;;;;14.80;13.70;;;18.00;99.90;;;;;;5037389;28;20035;-59
2022/09/04 09:07:32;;;;;;;;;;;18.10;99.90;;;;;;5038126;28;20148;-58
2022/09/04 09:10:36;;;;;;;12.18;11.35;;;18.40;99.90;;;;;;5042081;28;19913;-58
2022/09/04 09:13:13;;;;;;;12.48;11.57;;;18.70;99.90;;;;;;5032668;28;20718;-59
2022/09/04 09:16:08;;;;;;;12.70;11.80;;;18.70;99.90;;;;;;5035746;28;20021;-58
2022/09/04 09:18:54;;;;;;;13.25;12.10;;;18.70;99.90;;;;;;5034581;28;20044;-58
2022/09/04 09:21:41;;;;;;;12.98;12.07;;;18.60;99.90;;;;;;5040940;28;20500;-58
2022/09/04 09:24:35;;;;;;;10.93;10.13;;;18.90;99.90;;;;;;5037607;28;20044;-59
2022/09/04 09:27:10;;;;;;;11.07;10.27;;;19.50;99.90;;;;;;5025100;28;20846;-58
2022/09/04 09:29:35;;;;;;;11.35;10.48;;;19.90;99.90;;;;;;5033853;28;20570;-59
2022/09/04 09:32:13;;;;;;;10.77;10.07;;;20.30;99.90;;;;;;5032798;28;20095;-59
2022/09/04 09:35:22;;;;;;;10.38;9.68;;;20.90;99.90;;;;;;5039608;28;20026;-58
2022/09/04 09:38:05;;;;;;;8.50;7.90;;;21.90;99.90;;;;;;5033913;28;20112;-58
2022/09/04 09:40:54;;;;;;;8.52;7.93;;;23.20;99.90;;;;;;5032325;28;20025;-60
2022/09/04 09:43:57;;;;;;;8.15;7.55;;;24.00;99.90;;;;;;5034617;28;20034;-58
2022/09/04 09:47:09;;;;;;;8.13;7.60;;;24.60;99.90;;;;;;5041288;28;20076;-59
2022/09/04 09:49:56;;;;;;;8.15;7.57;;;24.90;99.90;;;;;;5038685;28;20025;-59
2022/09/04 09:52:47;;;;;;;7.55;6.95;;;26.10;99.90;;;;;;5035115;28;20108;-59
2022/09/04 09:55:16;;;;;;;7.75;7.25;;;27.60;99.90;;;;;;5032887;28;20037;-59
2022/09/04 09:57:56;;;;;;;6.35;5.95;;;28.10;92.30;;;;;;5037649;28;20021;-59
2022/09/04 10:00:24;;;;;;;7.43;6.95;;;28.60;90.20;;;;;;5036999;28;20389;-59
2022/09/04 10:03:08;;;;;;;6.95;6.45;;;29.40;82.90;;;;;;5036986;28;20392;-59
2022/09/04 10:05:43;;;;;;;7.40;6.88;;;29.90;79.00;;;;;;5036345;28;20021;-60
2022/09/04 10:08:16;;;;;;;7.07;6.50;;;30.00;75.60;;;;;;5034020;28;20482;-60
2022/09/04 10:10:57;;;;;;;6.03;5.55;;;30.10;78.00;;;;;;5035934;28;20049;-60
2022/09/04 10:13:50;;;;;;;8.05;7.53;;;30.50;74.30;;;;;;5035284;28;20029;-59
2022/09/04 10:17:02;;;;;;;7.78;7.28;;;30.50;70.30;;;;;;5033926;28;20033;-59
2022/09/04 10:19:45;;;;;;;5.40;5.00;;;30.40;69.60;;;;;;5033941;28;20050;-60
2022/09/04 10:23:02;;;;;;;5.57;5.25;;;30.80;67.50;;;;;;5041303;28;20021;-59
2022/09/04 10:26:08;;;;;;;6.55;6.15;;;30.70;72.50;;;;;;5025779;28;20129;-60
2022/09/04 10:29:10;;;;;;;5.38;4.97;;;30.80;68.60;;;;;;5036657;28;20436;-60
2022/09/04 10:32:01;;;;;;;5.90;5.40;;;31.10;71.90;;;;;;5035818;28;20047;-59
2022/09/04 10:34:38;;;;;;;4.90;4.60;;;31.50;68.00;;;;;;5038837;28;20065;-59
2022/09/04 10:37:23;;;;;;;4.82;4.43;;;31.90;66.80;;;;;;5032482;28;20030;-60
2022/09/04 10:43:01;;;;;;;6.38;5.30;;;32.50;61.60;;;;;;5038797;28;20027;-59
2022/09/04 10:45:31;;;;;;;5.32;5.03;;;32.20;59.90;;;;;;5040167;28;20028;-59
2022/09/04 10:48:02;;;;;;;4.70;4.40;;;32.20;60.20;;;;;;5037336;28;20044;-58
2022/09/04 10:50:40;;;;;;;5.20;4.70;;;32.10;61.30;;;;;;5039872;28;20036;-58
2022/09/04 10:53:27;;;;;;;4.03;3.67;;;31.80;60.80;;;;;;5035376;28;20451;-57
2022/09/04 10:56:25;;;;;;;3.35;3.13;;;32.10;61.00;;;;;;5040181;28;20042;-58
2022/09/04 10:59:09;;;;;;;3.83;3.47;;;32.20;63.10;;;;;;5038841;28;20026;-59
2022/09/04 11:01:54;;;;;;;3.13;2.92;;;32.10;62.40;;;;;;5038852;28;20682;-58
2022/09/04 11:04:40;;;;;;;2.00;1.90;;;32.30;62.30;;;;;;5042263;28;20119;-58
2022/09/04 11:07:33;;;;;;;1.70;1.42;;;32.10;60.70;;;;;;5040753;28;20496;-58
2022/09/04 11:10:19;;;;;;;3.00;1.52;;;32.00;55.20;;;;;;5040980;28;20119;-58
2022/09/04 11:12:54;;;;;;;2.22;1.30;;;31.60;55.10;;;;;;5036753;28;20026;-58
2022/09/04 11:15:47;;;;;;;1.00;1.00;;;31.50;59.20;;;;;;5035053;28;20100;-58
2022/09/04 11:18:18;;;;;;;1.52;1.00;;;32.10;58.40;;;;;;5036020;28;20041;-57
2022/09/04 11:21:11;;;;;;;1.63;1.10;;;32.80;57.10;;;;;;5020517;28;20053;-59
2022/09/04 11:24:07;;;;;;;1.10;1.02;;;33.50;56.50;;;;;;5018272;28;20030;-58
2022/09/04 11:26:53;;;;;;;1.42;0.90;;;33.30;50.30;;;;;;5015771;28;20026;-60
2022/09/04 11:29:39;;;;;;;1.80;1.30;;;32.90;53.90;;;;;;5018549;28;20037;-58
2022/09/04 11:32:54;;;;;;;1.45;1.00;;;32.60;53.10;;;;;;5018696;28;20025;-57
2022/09/04 11:35:37;;;;;;;1.67;1.00;;;32.10;52.00;;;;;;5017389;28;20026;-59
2022/09/04 11:38:22;;;;;;;0.90;0.90;;;32.10;51.00;;;;;;5013542;28;20057;-58
2022/09/04 11:41:15;;;;;;;1.75;1.38;;;31.90;50.80;;;;;;5018341;28;20069;-58
2022/09/04 11:44:15;;;;;;;0.85;0.85;;;31.50;53.40;;;;;;5017824;28;20048;-59
2022/09/04 11:46:59;;;;;;;1.55;1.00;;;31.60;55.10;;;;;;5018049;28;20100;-59
2022/09/04 11:49:50;;;;;;;1.00;1.00;;;32.00;54.60;;;;;;5025267;28;20536;-59
2022/09/04 11:52:15;;;;;;;3.80;0.90;;;32.10;54.20;;;;;;5024426;28;20022;-59
2022/09/04 11:55:00;;;;;;;0.82;0.82;;;31.90;51.00;;;;;;5023313;28;20632;-57
2022/09/04 11:57:53;;;;;;;2.60;1.00;;;31.80;53.00;;;;;;5015083;28;20539;-58
2022/09/04 12:00:19;;;;;;;2.20;0.80;;;31.90;54.60;;;;;;5017392;28;20080;-58
2022/09/04 12:03:17;;;;;;;2.55;0.90;;;32.00;52.80;;;;;;5017082;28;20029;-59
2022/09/04 12:05:49;;;;;;;1.33;1.00;;;31.80;53.80;;;;;;5015051;28;20104;-58
2022/09/04 12:08:50;;;;;;;1.23;0.88;;;31.80;52.10;;;;;;5019215;28;20030;-60
2022/09/04 12:11:51;;;;;;;1.02;0.90;;;31.60;53.20;;;;;;5020044;28;20026;-58
2022/09/04 12:14:21;;;;;;;;;;;31.50;53.50;;;;;;5016290;28;20038;-59
2022/09/04 12:16:57;;;;;;;1.35;0.88;;;31.70;54.30;;;;;;5018237;28;19996;-59
2022/09/04 12:19:41;;;;;;;0.80;0.80;;;32.10;55.90;;;;;;5016416;28;20042;-60
2022/09/04 12:22:44;;;;;;;2.65;1.05;;;32.10;52.20;;;;;;5016393;28;20037;-59
2022/09/04 12:25:10;;;;;;;0.80;0.80;;;31.70;55.30;;;;;;5018732;28;20040;-58
2022/09/04 12:27:53;;;;;;;1.17;1.08;;;31.70;56.10;;;;;;5014216;28;20105;-58
2022/09/04 12:30:22;;;;;;;2.78;1.08;;;30.90;54.00;;;;;;5017228;28;20021;-59
2022/09/04 12:33:12;;;;;;;2.17;1.05;;;30.30;58.50;;;;;;5017418;28;20030;-58
2022/09/04 12:35:41;;;;;;;3.00;1.30;;;30.10;56.30;;;;;;5017146;28;20049;-58
2022/09/04 12:38:38;;;;;;;1.15;1.10;;;30.10;58.40;;;;;;5017111;28;20433;-59
2022/09/04 12:41:29;;;;;;;1.13;1.13;;;30.30;57.80;;;;;;5011901;28;20496;-57
2022/09/04 12:44:20;;;;;;;1.00;1.00;;;30.20;57.20;;;;;;5017104;28;20038;-57
2022/09/04 12:46:59;;;;;;;1.42;1.25;;;30.30;59.00;;;;;;5014372;28;20511;-59
2022/09/04 12:49:50;;;;;;;1.00;0.90;;;30.90;56.20;;;;;;5015829;28;20026;-57
2022/09/04 12:52:29;;;;;;;;;;;31.30;56.80;;;;;;5016437;28;20033;-59
2022/09/04 12:55:08;;;;;;;0.88;0.85;;;31.60;54.40;;;;;;5014521;28;19912;-58
2022/09/04 12:57:54;;;;;;;2.25;1.10;;;31.90;57.30;;;;;;5019775;28;20034;-59
2022/09/04 13:00:25;;;;;;;1.35;1.00;;;32.20;55.50;;;;;;5018178;28;20481;-58
2022/09/04 13:03:24;;;;;;;0.98;0.82;;;31.90;55.00;;;;;;5014582;28;20062;-59
2022/09/04 13:06:09;;;;;;;1.17;1.10;;;31.90;56.60;;;;;;5010236;28;20073;-57
2022/09/04 13:09:16;;;;;;;1.63;0.80;;;31.90;56.00;;;;;;5010558;28;20493;-57
2022/09/04 13:11:48;;;;;;;1.20;1.10;;;31.80;56.40;;;;;;5015491;28;20040;-58
2022/09/04 13:14:19;;;;;;;3.00;1.10;;;32.30;55.10;;;;;;5018468;28;20026;-59
2022/09/04 13:17:03;;;;;;;0.95;0.88;;;32.60;53.70;;;;;;5012665;28;20036;-58
2022/09/04 13:19:44;;;;;;;1.60;0.85;;;32.60;54.80;;;;;;5021477;28;20039;-58
2022/09/04 13:22:22;;;;;;;1.80;0.90;;;32.80;55.30;;;;;;5014919;28;20485;-59
2022/09/04 13:24:56;;;;;;;0.85;0.85;;;33.10;51.80;;;;;;5016131;28;20032;-59
2022/09/04 13:27:35;;;;;;;0.57;0.57;;;32.90;52.00;;;;;;5017762;28;20022;-59
2022/09/04 13:30:20;;;;;;;2.47;1.00;;;32.80;53.10;;;;;;5022542;28;20539;-60
2022/09/04 13:33:11;;;;;;;1.95;0.95;;;32.80;52.80;;;;;;5013331;28;20113;-59
2022/09/04 13:36:15;;;;;;;2.63;1.10;;;32.50;53.60;;;;;;5022813;28;20048;-59
2022/09/04 13:38:56;;;;;;;4.60;1.02;;;31.90;54.20;;;;;;5017964;28;20029;-59
2022/09/04 13:41:43;;;;;;;1.48;0.90;;;31.30;55.20;;;;;;5013403;28;20117;-59
2022/09/04 13:44:27;;;;;;;1.60;1.00;;;30.30;56.20;;;;;;5015101;28;20257;-57
2022/09/04 13:47:05;;;;;;;1.38;0.95;;;30.10;57.70;;;;;;5014104;28;20052;-60
2022/09/04 13:49:37;;;;;;;0.90;0.90;;;30.30;56.90;;;;;;5021646;28;20105;-57
2022/09/04 13:52:14;;;;;;;1.45;1.15;;;30.10;56.20;;;;;;5015957;28;20026;-58
2022/09/04 13:54:51;;;;;;;1.73;1.20;;;29.80;60.50;;;;;;5016164;28;20397;-58
2022/09/04 13:57:24;;;;;;;1.50;0.88;;;29.60;58.00;;;;;;5018059;28;20373;-58
2022/09/04 13:59:53;;;;;;;1.40;0.80;;;29.70;59.40;;;;;;5017306;28;20403;-58
2022/09/04 14:02:24;;;;;;;1.63;1.10;;;30.00;59.40;;;;;;5016641;28;20513;-59
2022/09/04 14:05:04;;;;;;;0.93;0.90;;;30.40;60.20;;;;;;5016250;28;20049;-59